Terminal Aerodrome Forecast
Issued by NWS

Home | Current Version | Previous Version | Text Only | Print | Product List | Glossary On
Versions: 1 2 3 4 5 6 7 8 9 10 11 12 13 14
000
FTUS41 KCAR 041734
TAFFVE
TAF
KFVE 041734Z 0418/0518 25008KT P6SM FEW050 BKN250
     FM042300 VRB03KT P6SM SCT250
     FM051400 30006KT P6SM BKN050=

USA.gov is the U.S. government's official web portal to all federal, state and local government web resources and services.